Essex, Vermont
Current Conditions -  °F | °C
As of 4:54 PM on Sunday 21 Dec 2014 (Local Time) from KBTV Reporting Station
Overcast Overcast  
Wind Chill: 21°   Ceiling: 3200
Heat Index: 26°   Visibility: 10mi
Dew Point: 20°   Wind: 5mph
Humidity: 78%   Direction: 340°NNW
Pressure: 30.35"   Gusts: NA
Location:  44.51°N, 73.05°W
Report Text: KBTV 212154Z 34004KT 10SM OVC032 M03/M07 A3035 RMK AO2 SLP282 T10331067
Loading
Personal Weather Stations






























Interactive Weather Map New forecast layout! Learn more

10-Day Weather Forecast

Advertisements
Track Severe Weather on mobile